sensor_id;sensor_type;location;lat;lon;timestamp;temperature;humidity
14236;DHT22;7202;50.718;7.072;2023-10-31T00:01:32;12.60;99.90
14236;DHT22;7202;50.718;7.072;2023-10-31T00:04:01;12.60;99.90
14236;DHT22;7202;50.718;7.072;2023-10-31T00:06:31;12.60;99.90
14236;DHT22;7202;50.718;7.072;2023-10-31T00:08:59;12.50;99.90
14236;DHT22;7202;50.718;7.072;2023-10-31T00:11:28;12.50;99.90
14236;DHT22;7202;50.718;7.072;2023-10-31T00:13:56;12.50;99.90
14236;DHT22;7202;50.718;7.072;2023-10-31T00:16:24;12.50;99.90
14236;DHT22;7202;50.718;7.072;2023-10-31T00:18:53;12.60;99.90
14236;DHT22;7202;50.718;7.072;2023-10-31T00:21:22;12.60;99.90
14236;DHT22;7202;50.718;7.072;2023-10-31T00:23:52;12.70;99.90
14236;DHT22;7202;50.718;7.072;2023-10-31T00:26:20;12.70;99.90
14236;DHT22;7202;50.718;7.072;2023-10-31T00:28:53;12.70;99.90
14236;DHT22;7202;50.718;7.072;2023-10-31T00:31:21;12.70;99.90
14236;DHT22;7202;50.718;7.072;2023-10-31T00:33:50;12.60;99.90
14236;DHT22;7202;50.718;7.072;2023-10-31T00:36:18;12.50;99.90
14236;DHT22;7202;50.718;7.072;2023-10-31T00:38:47;12.60;99.90
14236;DHT22;7202;50.718;7.072;2023-10-31T00:41:16;12.50;99.90
14236;DHT22;7202;50.718;7.072;2023-10-31T00:43:45;12.50;99.90
14236;DHT22;7202;50.718;7.072;2023-10-31T00:46:13;12.40;99.90
14236;DHT22;7202;50.718;7.072;2023-10-31T00:48:42;12.40;99.90
14236;DHT22;7202;50.718;7.072;2023-10-31T00:51:11;12.40;99.90
14236;DHT22;7202;50.718;7.072;2023-10-31T00:53:39;12.40;99.90
14236;DHT22;7202;50.718;7.072;2023-10-31T00:56:08;12.30;99.90
14236;DHT22;7202;50.718;7.072;2023-10-31T00:58:38;12.30;99.90
14236;DHT22;7202;50.718;7.072;2023-10-31T01:01:07;12.30;99.90
14236;DHT22;7202;50.718;7.072;2023-10-31T01:03:35;12.30;99.90
14236;DHT22;7202;50.718;7.072;2023-10-31T01:06:05;12.30;99.90
14236;DHT22;7202;50.718;7.072;2023-10-31T01:08:34;12.30;99.90
14236;DHT22;7202;50.718;7.072;2023-10-31T01:11:03;12.30;99.90
14236;DHT22;7202;50.718;7.072;2023-10-31T01:13:31;12.30;99.90
14236;DHT22;7202;50.718;7.072;2023-10-31T01:16:03;12.30;99.90
14236;DHT22;7202;50.718;7.072;2023-10-31T01:18:32;12.20;99.90
14236;DHT22;7202;50.718;7.072;2023-10-31T01:21:01;12.30;99.90
14236;DHT22;7202;50.718;7.072;2023-10-31T01:23:29;12.20;99.90
14236;DHT22;7202;50.718;7.072;2023-10-31T01:25:58;12.20;99.90
14236;DHT22;7202;50.718;7.072;2023-10-31T01:28:26;12.20;99.90
14236;DHT22;7202;50.718;7.072;2023-10-31T01:30:55;12.20;99.90
14236;DHT22;7202;50.718;7.072;2023-10-31T01:33:25;12.10;99.90
14236;DHT22;7202;50.718;7.072;2023-10-31T01:35:54;12.00;99.90
14236;DHT22;7202;50.718;7.072;2023-10-31T01:38:23;12.00;99.90
14236;DHT22;7202;50.718;7.072;2023-10-31T01:40:52;12.00;99.90
14236;DHT22;7202;50.718;7.072;2023-10-31T01:43:31;11.90;99.90
14236;DHT22;7202;50.718;7.072;2023-10-31T01:46:00;11.90;99.90
14236;DHT22;7202;50.718;7.072;2023-10-31T01:48:31;11.90;99.90
14236;DHT22;7202;50.718;7.072;2023-10-31T01:51:02;11.80;99.90
14236;DHT22;7202;50.718;7.072;2023-10-31T01:53:32;11.80;99.90
14236;DHT22;7202;50.718;7.072;2023-10-31T01:56:02;11.80;99.90
14236;DHT22;7202;50.718;7.072;2023-10-31T01:58:34;11.80;99.90
14236;DHT22;7202;50.718;7.072;2023-10-31T02:01:04;11.70;99.90
14236;DHT22;7202;50.718;7.072;2023-10-31T02:03:35;11.70;99.90
14236;DHT22;7202;50.718;7.072;2023-10-31T02:06:04;11.70;99.90
14236;DHT22;7202;50.718;7.072;2023-10-31T02:08:32;11.60;99.90
14236;DHT22;7202;50.718;7.072;2023-10-31T02:11:01;11.60;99.90
14236;DHT22;7202;50.718;7.072;2023-10-31T02:13:31;11.50;99.90
14236;DHT22;7202;50.718;7.072;2023-10-31T02:15:59;11.60;99.90
14236;DHT22;7202;50.718;7.072;2023-10-31T02:18:29;11.50;99.90
14236;DHT22;7202;50.718;7.072;2023-10-31T02:20:59;11.50;99.90
14236;DHT22;7202;50.718;7.072;2023-10-31T02:23:29;11.40;99.90
14236;DHT22;7202;50.718;7.072;2023-10-31T02:25:58;11.40;99.90
14236;DHT22;7202;50.718;7.072;2023-10-31T02:28:26;11.40;99.90
14236;DHT22;7202;50.718;7.072;2023-10-31T02:30:55;11.30;99.90
14236;DHT22;7202;50.718;7.072;2023-10-31T02:33:24;11.30;99.90
14236;DHT22;7202;50.718;7.072;2023-10-31T02:35:52;11.20;99.90
14236;DHT22;7202;50.718;7.072;2023-10-31T02:38:21;11.10;99.90
14236;DHT22;7202;50.718;7.072;2023-10-31T02:40:52;11.20;99.90
14236;DHT22;7202;50.718;7.072;2023-10-31T02:43:21;11.10;99.90
14236;DHT22;7202;50.718;7.072;2023-10-31T02:45:49;11.10;99.90
14236;DHT22;7202;50.718;7.072;2023-10-31T02:48:18;11.00;99.90
14236;DHT22;7202;50.718;7.072;2023-10-31T02:50:47;11.00;99.90
14236;DHT22;7202;50.718;7.072;2023-10-31T02:53:17;11.00;99.90
14236;DHT22;7202;50.718;7.072;2023-10-31T02:55:46;10.90;99.90
14236;DHT22;7202;50.718;7.072;2023-10-31T02:58:16;10.80;99.90
14236;DHT22;7202;50.718;7.072;2023-10-31T03:00:44;10.80;99.90
14236;DHT22;7202;50.718;7.072;2023-10-31T03:03:13;10.70;99.90
14236;DHT22;7202;50.718;7.072;2023-10-31T03:05:42;10.70;99.90
14236;DHT22;7202;50.718;7.072;2023-10-31T03:08:10;10.70;99.90
14236;DHT22;7202;50.718;7.072;2023-10-31T03:10:41;10.70;99.90
14236;DHT22;7202;50.718;7.072;2023-10-31T03:13:10;10.70;99.90
14236;DHT22;7202;50.718;7.072;2023-10-31T03:15:40;10.60;99.90
14236;DHT22;7202;50.718;7.072;2023-10-31T03:18:08;10.60;99.90
14236;DHT22;7202;50.718;7.072;2023-10-31T03:20:37;10.60;99.90
14236;DHT22;7202;50.718;7.072;2023-10-31T03:23:05;10.60;99.90
14236;DHT22;7202;50.718;7.072;2023-10-31T03:25:34;10.60;99.90
14236;DHT22;7202;50.718;7.072;2023-10-31T03:28:03;10.70;99.90
14236;DHT22;7202;50.718;7.072;2023-10-31T03:30:31;10.60;99.90
14236;DHT22;7202;50.718;7.072;2023-10-31T03:33:01;10.50;99.90
14236;DHT22;7202;50.718;7.072;2023-10-31T03:35:29;10.50;99.90
14236;DHT22;7202;50.718;7.072;2023-10-31T03:37:58;10.50;99.90
14236;DHT22;7202;50.718;7.072;2023-10-31T03:40:26;10.50;99.90
14236;DHT22;7202;50.718;7.072;2023-10-31T03:42:55;10.50;99.90
14236;DHT22;7202;50.718;7.072;2023-10-31T03:45:24;10.50;99.90
14236;DHT22;7202;50.718;7.072;2023-10-31T03:47:52;10.50;99.90
14236;DHT22;7202;50.718;7.072;2023-10-31T03:50:28;10.50;99.90
14236;DHT22;7202;50.718;7.072;2023-10-31T03:52:57;10.60;99.90
14236;DHT22;7202;50.718;7.072;2023-10-31T03:55:25;10.50;99.90
14236;DHT22;7202;50.718;7.072;2023-10-31T03:57:54;10.50;99.90
14236;DHT22;7202;50.718;7.072;2023-10-31T04:00:23;10.50;99.90
14236;DHT22;7202;50.718;7.072;2023-10-31T04:02:51;10.50;99.90
14236;DHT22;7202;50.718;7.072;2023-10-31T04:05:21;10.50;99.90
14236;DHT22;7202;50.718;7.072;2023-10-31T04:07:51;10.50;99.90
14236;DHT22;7202;50.718;7.072;2023-10-31T04:10:20;10.50;99.90
14236;DHT22;7202;50.718;7.072;2023-10-31T04:12:48;10.50;99.90
14236;DHT22;7202;50.718;7.072;2023-10-31T04:15:17;10.50;99.90
14236;DHT22;7202;50.718;7.072;2023-10-31T04:17:45;10.50;99.90
14236;DHT22;7202;50.718;7.072;2023-10-31T04:20:14;10.50;99.90
14236;DHT22;7202;50.718;7.072;2023-10-31T04:22:42;10.50;99.90
14236;DHT22;7202;50.718;7.072;2023-10-31T04:25:12;10.50;99.90
14236;DHT22;7202;50.718;7.072;2023-10-31T04:27:41;10.50;99.90
14236;DHT22;7202;50.718;7.072;2023-10-31T04:30:10;10.50;99.90
14236;DHT22;7202;50.718;7.072;2023-10-31T04:32:41;10.50;99.90
14236;DHT22;7202;50.718;7.072;2023-10-31T04:35:10;10.50;99.90
14236;DHT22;7202;50.718;7.072;2023-10-31T04:37:38;10.50;99.90
14236;DHT22;7202;50.718;7.072;2023-10-31T04:40:08;10.50;99.90
14236;DHT22;7202;50.718;7.072;2023-10-31T04:42:38;10.50;99.90
14236;DHT22;7202;50.718;7.072;2023-10-31T04:45:08;10.60;99.90
14236;DHT22;7202;50.718;7.072;2023-10-31T04:47:36;10.60;99.90
14236;DHT22;7202;50.718;7.072;2023-10-31T04:50:05;10.70;99.90
14236;DHT22;7202;50.718;7.072;2023-10-31T04:52:34;10.70;99.90
14236;DHT22;7202;50.718;7.072;2023-10-31T04:55:03;10.70;99.90
14236;DHT22;7202;50.718;7.072;2023-10-31T04:57:32;10.80;99.90
14236;DHT22;7202;50.718;7.072;2023-10-31T05:00:02;10.80;99.90
14236;DHT22;7202;50.718;7.072;2023-10-31T05:02:33;10.80;99.90
14236;DHT22;7202;50.718;7.072;2023-10-31T05:05:02;10.90;99.90
14236;DHT22;7202;50.718;7.072;2023-10-31T05:07:31;11.00;99.90
14236;DHT22;7202;50.718;7.072;2023-10-31T05:10:00;11.00;99.90
14236;DHT22;7202;50.718;7.072;2023-10-31T05:12:29;11.10;99.90
14236;DHT22;7202;50.718;7.072;2023-10-31T05:14:58;11.10;99.90
14236;DHT22;7202;50.718;7.072;2023-10-31T05:17:27;11.20;99.90
14236;DHT22;7202;50.718;7.072;2023-10-31T05:19:56;11.20;99.90
14236;DHT22;7202;50.718;7.072;2023-10-31T05:22:24;11.20;99.90
14236;DHT22;7202;50.718;7.072;2023-10-31T05:24:53;11.20;99.90
14236;DHT22;7202;50.718;7.072;2023-10-31T05:27:22;11.20;99.90
14236;DHT22;7202;50.718;7.072;2023-10-31T05:29:50;11.30;99.90
14236;DHT22;7202;50.718;7.072;2023-10-31T05:32:19;11.30;99.90
14236;DHT22;7202;50.718;7.072;2023-10-31T05:34:49;11.40;99.90
14236;DHT22;7202;50.718;7.072;2023-10-31T05:37:17;11.30;99.90
14236;DHT22;7202;50.718;7.072;2023-10-31T05:39:46;11.30;99.90
14236;DHT22;7202;50.718;7.072;2023-10-31T05:42:14;11.30;99.90
14236;DHT22;7202;50.718;7.072;2023-10-31T05:44:44;11.20;99.90
14236;DHT22;7202;50.718;7.072;2023-10-31T05:47:13;11.20;99.90
14236;DHT22;7202;50.718;7.072;2023-10-31T05:49:42;11.20;99.90
14236;DHT22;7202;50.718;7.072;2023-10-31T05:52:12;11.20;99.90
14236;DHT22;7202;50.718;7.072;2023-10-31T05:54:41;11.30;99.90
14236;DHT22;7202;50.718;7.072;2023-10-31T05:57:09;11.20;99.90
14236;DHT22;7202;50.718;7.072;2023-10-31T05:59:38;11.30;99.90
14236;DHT22;7202;50.718;7.072;2023-10-31T06:02:07;11.30;99.90
14236;DHT22;7202;50.718;7.072;2023-10-31T06:04:35;11.30;99.90
14236;DHT22;7202;50.718;7.072;2023-10-31T06:07:04;11.30;99.90
14236;DHT22;7202;50.718;7.072;2023-10-31T06:09:34;11.40;99.90
14236;DHT22;7202;50.718;7.072;2023-10-31T06:12:03;11.40;99.90
14236;DHT22;7202;50.718;7.072;2023-10-31T06:14:32;11.40;99.90
14236;DHT22;7202;50.718;7.072;2023-10-31T06:17:01;11.40;99.90
14236;DHT22;7202;50.718;7.072;2023-10-31T06:19:33;11.40;99.90
14236;DHT22;7202;50.718;7.072;2023-10-31T06:22:02;11.40;99.90
14236;DHT22;7202;50.718;7.072;2023-10-31T06:24:33;11.40;99.90
14236;DHT22;7202;50.718;7.072;2023-10-31T06:27:02;11.40;99.90
14236;DHT22;7202;50.718;7.072;2023-10-31T06:29:30;11.30;99.90
14236;DHT22;7202;50.718;7.072;2023-10-31T06:32:19;11.30;99.90
14236;DHT22;7202;50.718;7.072;2023-10-31T06:34:47;11.40;99.90
14236;DHT22;7202;50.718;7.072;2023-10-31T06:37:15;11.30;99.90
14236;DHT22;7202;50.718;7.072;2023-10-31T06:39:45;11.30;99.90
14236;DHT22;7202;50.718;7.072;2023-10-31T06:42:14;11.40;99.90
14236;DHT22;7202;50.718;7.072;2023-10-31T06:44:42;11.40;99.90
14236;DHT22;7202;50.718;7.072;2023-10-31T06:47:11;11.50;99.90
14236;DHT22;7202;50.718;7.072;2023-10-31T06:49:39;11.40;99.90
14236;DHT22;7202;50.718;7.072;2023-10-31T06:52:08;11.50;99.90
14236;DHT22;7202;50.718;7.072;2023-10-31T06:54:36;11.40;99.90
14236;DHT22;7202;50.718;7.072;2023-10-31T06:57:06;11.40;99.90
14236;DHT22;7202;50.718;7.072;2023-10-31T06:59:35;11.50;99.90
14236;DHT22;7202;50.718;7.072;2023-10-31T07:02:03;11.40;99.90
14236;DHT22;7202;50.718;7.072;2023-10-31T07:04:32;11.40;99.90
14236;DHT22;7202;50.718;7.072;2023-10-31T07:07:00;11.50;99.90
14236;DHT22;7202;50.718;7.072;2023-10-31T07:09:29;11.50;99.90
14236;DHT22;7202;50.718;7.072;2023-10-31T07:11:57;11.50;99.90
14236;DHT22;7202;50.718;7.072;2023-10-31T07:14:27;11.50;99.90
14236;DHT22;7202;50.718;7.072;2023-10-31T07:16:56;11.40;99.90
14236;DHT22;7202;50.718;7.072;2023-10-31T07:19:25;11.40;99.90
14236;DHT22;7202;50.718;7.072;2023-10-31T07:21:54;11.40;99.90
14236;DHT22;7202;50.718;7.072;2023-10-31T07:24:22;11.40;99.90
14236;DHT22;7202;50.718;7.072;2023-10-31T07:26:51;11.40;99.90
14236;DHT22;7202;50.718;7.072;2023-10-31T07:29:20;11.40;99.90
14236;DHT22;7202;50.718;7.072;2023-10-31T07:31:50;11.30;99.90
14236;DHT22;7202;50.718;7.072;2023-10-31T07:34:18;11.30;99.90
14236;DHT22;7202;50.718;7.072;2023-10-31T07:36:47;11.40;99.90
14236;DHT22;7202;50.718;7.072;2023-10-31T07:39:15;11.30;99.90
14236;DHT22;7202;50.718;7.072;2023-10-31T07:41:44;11.30;99.90
14236;DHT22;7202;50.718;7.072;2023-10-31T07:44:12;11.30;99.90
14236;DHT22;7202;50.718;7.072;2023-10-31T07:46:41;11.30;99.90
14236;DHT22;7202;50.718;7.072;2023-10-31T07:49:11;11.30;99.90
14236;DHT22;7202;50.718;7.072;2023-10-31T07:51:40;11.50;99.90
14236;DHT22;7202;50.718;7.072;2023-10-31T07:54:08;11.40;99.90
14236;DHT22;7202;50.718;7.072;2023-10-31T07:56:37;11.30;99.90
14236;DHT22;7202;50.718;7.072;2023-10-31T07:59:07;11.30;99.90
14236;DHT22;7202;50.718;7.072;2023-10-31T08:01:36;11.30;99.90
14236;DHT22;7202;50.718;7.072;2023-10-31T08:04:05;11.30;99.90
14236;DHT22;7202;50.718;7.072;2023-10-31T08:06:35;11.40;99.90
14236;DHT22;7202;50.718;7.072;2023-10-31T08:09:03;11.40;99.90
14236;DHT22;7202;50.718;7.072;2023-10-31T08:11:35;11.50;99.90
14236;DHT22;7202;50.718;7.072;2023-10-31T08:14:04;11.50;99.90
14236;DHT22;7202;50.718;7.072;2023-10-31T08:16:33;11.50;99.90
14236;DHT22;7202;50.718;7.072;2023-10-31T08:19:02;11.50;99.90
14236;DHT22;7202;50.718;7.072;2023-10-31T08:21:30;11.60;99.90
14236;DHT22;7202;50.718;7.072;2023-10-31T08:24:04;11.70;99.90
14236;DHT22;7202;50.718;7.072;2023-10-31T08:26:33;11.70;99.90
14236;DHT22;7202;50.718;7.072;2023-10-31T08:29:02;11.70;99.90
14236;DHT22;7202;50.718;7.072;2023-10-31T08:31:31;11.90;99.90
14236;DHT22;7202;50.718;7.072;2023-10-31T08:33:59;11.80;99.90
14236;DHT22;7202;50.718;7.072;2023-10-31T08:36:29;11.90;99.90
14236;DHT22;7202;50.718;7.072;2023-10-31T08:38:58;11.90;99.90
14236;DHT22;7202;50.718;7.072;2023-10-31T08:41:27;12.00;99.90
14236;DHT22;7202;50.718;7.072;2023-10-31T08:43:56;12.00;99.90
14236;DHT22;7202;50.718;7.072;2023-10-31T08:46:25;12.10;99.90
14236;DHT22;7202;50.718;7.072;2023-10-31T08:48:54;12.10;99.90
14236;DHT22;7202;50.718;7.072;2023-10-31T08:51:22;12.20;99.90
14236;DHT22;7202;50.718;7.072;2023-10-31T08:53:51;12.30;99.90
14236;DHT22;7202;50.718;7.072;2023-10-31T08:56:19;12.30;99.90
14236;DHT22;7202;50.718;7.072;2023-10-31T08:58:48;12.40;99.90
14236;DHT22;7202;50.718;7.072;2023-10-31T09:01:17;12.50;99.90
14236;DHT22;7202;50.718;7.072;2023-10-31T09:03:46;12.50;99.90
14236;DHT22;7202;50.718;7.072;2023-10-31T09:06:14;12.60;99.90
14236;DHT22;7202;50.718;7.072;2023-10-31T09:08:43;12.60;99.90
14236;DHT22;7202;50.718;7.072;2023-10-31T09:11:11;12.60;99.90
14236;DHT22;7202;50.718;7.072;2023-10-31T09:13:40;12.70;99.90
14236;DHT22;7202;50.718;7.072;2023-10-31T09:16:10;12.70;99.90
14236;DHT22;7202;50.718;7.072;2023-10-31T09:18:39;12.70;99.90
14236;DHT22;7202;50.718;7.072;2023-10-31T09:21:09;12.70;99.90
14236;DHT22;7202;50.718;7.072;2023-10-31T09:23:38;12.80;99.90
14236;DHT22;7202;50.718;7.072;2023-10-31T09:26:07;12.80;99.90
14236;DHT22;7202;50.718;7.072;2023-10-31T09:28:36;12.80;99.90
14236;DHT22;7202;50.718;7.072;2023-10-31T09:31:07;12.80;99.90
14236;DHT22;7202;50.718;7.072;2023-10-31T09:33:38;12.80;99.90
14236;DHT22;7202;50.718;7.072;2023-10-31T09:36:08;12.90;99.90
14236;DHT22;7202;50.718;7.072;2023-10-31T09:38:37;12.90;99.90
14236;DHT22;7202;50.718;7.072;2023-10-31T09:41:06;13.00;99.90
14236;DHT22;7202;50.718;7.072;2023-10-31T09:43:35;13.00;99.90
14236;DHT22;7202;50.718;7.072;2023-10-31T09:46:05;13.00;99.90
14236;DHT22;7202;50.718;7.072;2023-10-31T09:48:34;13.00;99.90
14236;DHT22;7202;50.718;7.072;2023-10-31T09:51:06;13.10;99.90
14236;DHT22;7202;50.718;7.072;2023-10-31T09:53:37;13.10;99.90
14236;DHT22;7202;50.718;7.072;2023-10-31T09:56:07;13.20;99.90
14236;DHT22;7202;50.718;7.072;2023-10-31T09:58:37;13.20;99.90
14236;DHT22;7202;50.718;7.072;2023-10-31T10:01:07;13.30;99.90
14236;DHT22;7202;50.718;7.072;2023-10-31T10:03:36;13.30;99.90
14236;DHT22;7202;50.718;7.072;2023-10-31T10:06:09;13.40;99.90
14236;DHT22;7202;50.718;7.072;2023-10-31T10:08:38;13.60;99.90
14236;DHT22;7202;50.718;7.072;2023-10-31T10:11:07;13.70;99.90
14236;DHT22;7202;50.718;7.072;2023-10-31T10:13:37;13.80;99.90
14236;DHT22;7202;50.718;7.072;2023-10-31T10:16:07;13.90;99.90
14236;DHT22;7202;50.718;7.072;2023-10-31T10:18:37;14.00;99.90
14236;DHT22;7202;50.718;7.072;2023-10-31T10:21:11;14.40;99.90
14236;DHT22;7202;50.718;7.072;2023-10-31T10:23:40;14.10;99.90
14236;DHT22;7202;50.718;7.072;2023-10-31T10:26:09;14.10;99.90
14236;DHT22;7202;50.718;7.072;2023-10-31T10:28:38;14.20;99.90
14236;DHT22;7202;50.718;7.072;2023-10-31T10:31:07;14.20;99.90
14236;DHT22;7202;50.718;7.072;2023-10-31T10:33:36;14.20;99.90
14236;DHT22;7202;50.718;7.072;2023-10-31T10:36:08;14.10;99.90
14236;DHT22;7202;50.718;7.072;2023-10-31T10:38:41;14.20;99.90
14236;DHT22;7202;50.718;7.072;2023-10-31T10:41:12;14.20;99.90
14236;DHT22;7202;50.718;7.072;2023-10-31T10:43:44;14.20;99.90
14236;DHT22;7202;50.718;7.072;2023-10-31T10:46:15;14.20;99.90
14236;DHT22;7202;50.718;7.072;2023-10-31T10:48:46;14.20;99.90
14236;DHT22;7202;50.718;7.072;2023-10-31T10:51:23;14.20;99.90
14236;DHT22;7202;50.718;7.072;2023-10-31T10:53:57;14.20;99.90
14236;DHT22;7202;50.718;7.072;2023-10-31T10:56:38;14.20;99.90
14236;DHT22;7202;50.718;7.072;2023-10-31T10:59:13;14.20;99.90
14236;DHT22;7202;50.718;7.072;2023-10-31T11:01:44;14.20;99.90
14236;DHT22;7202;50.718;7.072;2023-10-31T11:04:15;14.20;99.90
14236;DHT22;7202;50.718;7.072;2023-10-31T11:06:45;14.20;99.90
14236;DHT22;7202;50.718;7.072;2023-10-31T11:09:16;14.10;99.90
14236;DHT22;7202;50.718;7.072;2023-10-31T11:11:46;14.20;99.90
14236;DHT22;7202;50.718;7.072;2023-10-31T11:14:17;14.20;99.90
14236;DHT22;7202;50.718;7.072;2023-10-31T11:16:51;14.10;99.90
14236;DHT22;7202;50.718;7.072;2023-10-31T11:19:23;14.10;99.90
14236;DHT22;7202;50.718;7.072;2023-10-31T11:21:53;14.20;99.90
14236;DHT22;7202;50.718;7.072;2023-10-31T11:24:26;14.20;99.90
14236;DHT22;7202;50.718;7.072;2023-10-31T11:26:59;14.30;99.90
14236;DHT22;7202;50.718;7.072;2023-10-31T11:29:30;14.40;99.90
14236;DHT22;7202;50.718;7.072;2023-10-31T11:31:59;14.40;99.90
14236;DHT22;7202;50.718;7.072;2023-10-31T11:34:30;14.50;99.90
14236;DHT22;7202;50.718;7.072;2023-10-31T11:37:22;14.60;99.90
14236;DHT22;7202;50.718;7.072;2023-10-31T11:40:18;14.70;99.90
14236;DHT22;7202;50.718;7.072;2023-10-31T11:42:48;14.80;99.90
14236;DHT22;7202;50.718;7.072;2023-10-31T11:45:28;14.80;99.90
14236;DHT22;7202;50.718;7.072;2023-10-31T11:47:58;14.80;99.90
14236;DHT22;7202;50.718;7.072;2023-10-31T11:50:26;14.80;99.90
14236;DHT22;7202;50.718;7.072;2023-10-31T11:53:04;14.80;99.90
14236;DHT22;7202;50.718;7.072;2023-10-31T11:55:36;14.70;99.90
14236;DHT22;7202;50.718;7.072;2023-10-31T11:58:13;14.70;99.90
14236;DHT22;7202;50.718;7.072;2023-10-31T12:00:42;14.60;99.90
14236;DHT22;7202;50.718;7.072;2023-10-31T12:03:12;14.50;99.90
14236;DHT22;7202;50.718;7.072;2023-10-31T12:05:51;14.50;99.90
14236;DHT22;7202;50.718;7.072;2023-10-31T12:08:27;14.50;99.90
14236;DHT22;7202;50.718;7.072;2023-10-31T12:11:08;14.50;99.90
14236;DHT22;7202;50.718;7.072;2023-10-31T12:13:39;14.60;99.90
14236;DHT22;7202;50.718;7.072;2023-10-31T12:16:09;14.70;99.90
14236;DHT22;7202;50.718;7.072;2023-10-31T12:18:40;14.70;99.90
14236;DHT22;7202;50.718;7.072;2023-10-31T12:21:09;14.70;99.90
14236;DHT22;7202;50.718;7.072;2023-10-31T12:23:42;14.70;99.90
14236;DHT22;7202;50.718;7.072;2023-10-31T12:26:12;14.80;99.90
14236;DHT22;7202;50.718;7.072;2023-10-31T12:28:43;14.80;99.90
14236;DHT22;7202;50.718;7.072;2023-10-31T12:31:12;14.80;99.90
14236;DHT22;7202;50.718;7.072;2023-10-31T12:33:41;14.70;99.90
14236;DHT22;7202;50.718;7.072;2023-10-31T12:36:10;14.80;99.90
14236;DHT22;7202;50.718;7.072;2023-10-31T12:38:40;14.80;99.90
14236;DHT22;7202;50.718;7.072;2023-10-31T12:41:08;14.90;99.90
14236;DHT22;7202;50.718;7.072;2023-10-31T12:43:39;14.90;99.90
14236;DHT22;7202;50.718;7.072;2023-10-31T12:46:26;14.90;99.90
14236;DHT22;7202;50.718;7.072;2023-10-31T12:48:56;14.90;99.90
14236;DHT22;7202;50.718;7.072;2023-10-31T12:51:26;14.90;99.90
14236;DHT22;7202;50.718;7.072;2023-10-31T12:53:55;14.90;99.90
14236;DHT22;7202;50.718;7.072;2023-10-31T12:56:40;14.90;99.90
14236;DHT22;7202;50.718;7.072;2023-10-31T12:59:10;14.90;99.90
14236;DHT22;7202;50.718;7.072;2023-10-31T13:01:42;14.90;99.90
14236;DHT22;7202;50.718;7.072;2023-10-31T13:04:12;14.90;99.90
14236;DHT22;7202;50.718;7.072;2023-10-31T13:06:41;14.90;99.90
14236;DHT22;7202;50.718;7.072;2023-10-31T13:09:11;14.90;99.90
14236;DHT22;7202;50.718;7.072;2023-10-31T13:11:40;14.80;99.90
14236;DHT22;7202;50.718;7.072;2023-10-31T13:14:11;14.80;99.90
14236;DHT22;7202;50.718;7.072;2023-10-31T13:16:41;14.80;99.90
14236;DHT22;7202;50.718;7.072;2023-10-31T13:19:10;14.80;99.90
14236;DHT22;7202;50.718;7.072;2023-10-31T13:21:39;14.90;99.90
14236;DHT22;7202;50.718;7.072;2023-10-31T13:24:09;14.90;99.90
14236;DHT22;7202;50.718;7.072;2023-10-31T13:26:38;14.90;99.90
14236;DHT22;7202;50.718;7.072;2023-10-31T13:29:07;14.90;99.90
14236;DHT22;7202;50.718;7.072;2023-10-31T13:31:37;14.90;99.90
14236;DHT22;7202;50.718;7.072;2023-10-31T13:34:06;14.80;99.90
14236;DHT22;7202;50.718;7.072;2023-10-31T13:36:35;14.80;99.90
14236;DHT22;7202;50.718;7.072;2023-10-31T13:39:06;14.80;99.90
14236;DHT22;7202;50.718;7.072;2023-10-31T13:41:36;14.60;99.90
14236;DHT22;7202;50.718;7.072;2023-10-31T13:44:05;14.50;99.90
14236;DHT22;7202;50.718;7.072;2023-10-31T13:46:34;14.40;99.90
14236;DHT22;7202;50.718;7.072;2023-10-31T13:49:06;14.40;99.90
14236;DHT22;7202;50.718;7.072;2023-10-31T13:51:38;14.30;99.90
14236;DHT22;7202;50.718;7.072;2023-10-31T13:54:06;14.20;99.90
14236;DHT22;7202;50.718;7.072;2023-10-31T13:56:35;14.20;99.90
14236;DHT22;7202;50.718;7.072;2023-10-31T13:59:04;14.20;99.90
14236;DHT22;7202;50.718;7.072;2023-10-31T14:01:33;14.20;99.90
14236;DHT22;7202;50.718;7.072;2023-10-31T14:04:02;14.20;99.90
14236;DHT22;7202;50.718;7.072;2023-10-31T14:06:33;14.20;99.90
14236;DHT22;7202;50.718;7.072;2023-10-31T14:09:03;14.30;99.90
14236;DHT22;7202;50.718;7.072;2023-10-31T14:11:33;14.40;99.90
14236;DHT22;7202;50.718;7.072;2023-10-31T14:14:02;14.40;99.90
14236;DHT22;7202;50.718;7.072;2023-10-31T14:16:34;14.40;99.90
14236;DHT22;7202;50.718;7.072;2023-10-31T14:19:03;14.40;99.90
14236;DHT22;7202;50.718;7.072;2023-10-31T14:21:34;14.40;99.90
14236;DHT22;7202;50.718;7.072;2023-10-31T14:24:04;14.40;99.90
14236;DHT22;7202;50.718;7.072;2023-10-31T14:26:39;14.40;99.90
14236;DHT22;7202;50.718;7.072;2023-10-31T14:29:11;14.40;99.90
14236;DHT22;7202;50.718;7.072;2023-10-31T14:31:41;14.40;99.90
14236;DHT22;7202;50.718;7.072;2023-10-31T14:34:10;14.40;99.90
14236;DHT22;7202;50.718;7.072;2023-10-31T14:36:41;14.40;99.90
14236;DHT22;7202;50.718;7.072;2023-10-31T14:39:10;14.30;99.90
14236;DHT22;7202;50.718;7.072;2023-10-31T14:41:39;14.30;99.90
14236;DHT22;7202;50.718;7.072;2023-10-31T14:44:08;14.30;99.90
14236;DHT22;7202;50.718;7.072;2023-10-31T14:46:37;14.20;99.90
14236;DHT22;7202;50.718;7.072;2023-10-31T14:49:07;14.20;99.90
14236;DHT22;7202;50.718;7.072;2023-10-31T14:51:37;14.20;99.90
14236;DHT22;7202;50.718;7.072;2023-10-31T14:54:07;14.20;99.90
14236;DHT22;7202;50.718;7.072;2023-10-31T14:56:37;14.20;99.90
14236;DHT22;7202;50.718;7.072;2023-10-31T14:59:05;14.20;99.90
14236;DHT22;7202;50.718;7.072;2023-10-31T15:01:35;13.90;99.90
14236;DHT22;7202;50.718;7.072;2023-10-31T15:04:04;14.10;99.90
14236;DHT22;7202;50.718;7.072;2023-10-31T15:06:34;14.10;99.90
14236;DHT22;7202;50.718;7.072;2023-10-31T15:09:04;14.00;99.90
14236;DHT22;7202;50.718;7.072;2023-10-31T15:11:34;14.00;99.90
14236;DHT22;7202;50.718;7.072;2023-10-31T15:14:03;13.90;99.90
14236;DHT22;7202;50.718;7.072;2023-10-31T15:16:32;13.90;99.90
14236;DHT22;7202;50.718;7.072;2023-10-31T15:19:01;13.90;99.90
14236;DHT22;7202;50.718;7.072;2023-10-31T15:21:30;13.80;99.90
14236;DHT22;7202;50.718;7.072;2023-10-31T15:23:59;13.80;99.90
14236;DHT22;7202;50.718;7.072;2023-10-31T15:26:28;13.80;99.90
14236;DHT22;7202;50.718;7.072;2023-10-31T15:28:59;13.80;99.90
14236;DHT22;7202;50.718;7.072;2023-10-31T15:31:29;13.90;99.90
14236;DHT22;7202;50.718;7.072;2023-10-31T15:33:58;13.90;99.90
14236;DHT22;7202;50.718;7.072;2023-10-31T15:36:27;13.90;99.90
14236;DHT22;7202;50.718;7.072;2023-10-31T15:38:56;13.90;99.90
14236;DHT22;7202;50.718;7.072;2023-10-31T15:41:25;13.90;99.90
14236;DHT22;7202;50.718;7.072;2023-10-31T15:43:54;13.80;99.90
14236;DHT22;7202;50.718;7.072;2023-10-31T15:46:24;13.80;99.90
14236;DHT22;7202;50.718;7.072;2023-10-31T15:48:53;13.80;99.90
14236;DHT22;7202;50.718;7.072;2023-10-31T15:51:22;13.90;99.90
14236;DHT22;7202;50.718;7.072;2023-10-31T15:53:51;13.90;99.90
14236;DHT22;7202;50.718;7.072;2023-10-31T15:56:20;13.90;99.90
14236;DHT22;7202;50.718;7.072;2023-10-31T15:58:49;13.80;99.90
14236;DHT22;7202;50.718;7.072;2023-10-31T16:01:18;13.80;99.90